Pagina principală
METAR-TAF:

METAR-TAF

Aeroporturi :

Munda, New Georgia, Insulele Solomon

Latitudine: 8-19-41S, longitudine: 157-15-47E, elevație: 3 m

Observații meteo curente

Raportul a fost făcut în urmă cu 11 ore și 0 de minute, la 05:00 UTC
Vânt 8 kt de la Vest/Sud-vest
Temperatură 30°C
Umiditate 70%
Presiune 1003 hPa
Vizibilitate de 10 km sau mai mult
Nori puțini la o înălțime de 1800 picior
Nori fragmentați la o înălțime de 31000 picior

METAR: AGGM 180500Z 25008KT 9999 FEW018 BKN310 30/24 Q1003

Ora: 03:00 (16:00 UTC)

Prognoză

Raportul a fost făcut în urmă cu 4 ore și 48 de minute, la 11:12 UTC
Prognoză valabilă de la 18 ora 12 UTC la 19 ora 12 UTC
Vânt 10 kt de la Sud-vest
Vizibilitate: 1005 m
Nori puțini la o înălțime de 1500 picior
Nori împrăștiați la o înălțime de 3000 picior

TAF: AGGM 181112Z 1812/1912 23010KT 9999 FEW015 SCT030 Q 1006 1004 1003 1005

Observații și prognoze meteo pentru peste 4.000 de aeroporturi (rapoarte METAR și TAF).

Stațiile disponibile sunt reprezentate pe hartă prin puncte galbene și roșii.

Țineți indicatorul mouse-ului pe punctul dorit pentru a vedea denumirea stației.

Apoi, faceți clic pentru a vedea observațiile și prognozele meteorologice.

Pentru a schimba harta: Pentru mărire, faceți clic pe butoanele verzi cu cruce neagră; pentru micșorare, pe butonul verde cu o liniuță; pentru hărți învecinate, pe săgețile verzi.


METAR-TAF: